Time;durP1;ratioP1;P1;durP2;ratioP2;P2;SDS_P1;SDS_P2;PMS_P1;PMS_P2;Temp;Humidity;BMP_temperature;BMP_pressure;BME280_temperature;BME280_humidity;BME280_pressure;Samples;Min_cycle;Max_cycle;Signal;HPM_P1;HPM_P2
2022/06/16 00:00:20;;;;;;;5.33;2.20;;;;;;;;;;5031860;28;20582;-88
2022/06/16 00:02:51;;;;;;;5.10;2.17;;;;;;;;;;5031722;28;20201;-89
2022/06/16 00:05:21;;;;;;;2.80;2.60;;;;;;;;;;5031722;28;20321;-91
2022/06/16 00:07:48;;;;;;;3.27;2.30;;;;;;;;;;5031013;28;20236;-89
2022/06/16 00:10:16;;;;;;;3.80;2.27;;;;;;;;;;5031390;28;20431;-90
2022/06/16 00:12:43;;;;;;;2.83;2.30;;;;;;;;;;5031530;28;20202;-90
2022/06/16 00:15:13;;;;;;;3.43;2.73;;;;;;;;;;5031444;28;20199;-91
2022/06/16 00:17:41;;;;;;;3.77;2.50;;;;;;;;;;5031605;28;20667;-90
2022/06/16 00:20:10;;;;;;;2.47;2.27;;;;;;;;;;5031269;28;20255;-90
2022/06/16 00:22:37;;;;;;;3.10;2.53;;;;;;;;;;5031261;28;20210;-90
2022/06/16 00:25:05;;;;;;;3.87;2.77;;;;;;;;;;5031489;28;20204;-90
2022/06/16 00:27:33;;;;;;;2.20;2.10;;;;;;;;;;5031341;28;20201;-90
2022/06/16 00:30:00;;;;;;;3.40;2.53;;;;;;;;;;5031012;28;20780;-90
2022/06/16 00:32:27;;;;;;;2.90;2.57;;;;;;;;;;5031307;28;20254;-90
2022/06/16 00:34:57;;;;;;;2.23;2.03;;;;;;;;;;5031322;28;20205;-90
2022/06/16 00:37:24;;;;;;;3.77;2.87;;;;;;;;;;5030902;28;20198;-90
2022/06/16 00:39:51;;;;;;;6.00;2.30;;;;;;;;;;5031186;28;20201;-91
2022/06/16 00:42:20;;;;;;;2.40;2.03;;;;;;;;;;5031324;28;20590;-91
2022/06/16 00:44:50;;;;;;;3.93;2.07;;;;;;;;;;5030827;28;20193;-90
2022/06/16 00:47:20;;;;;;;9.13;2.43;;;;;;;;;;5030678;28;20259;-90
2022/06/16 00:49:49;;;;;;;6.73;3.10;;;;;;;;;;5030809;28;20226;-88
2022/06/16 00:52:20;;;;;;;3.80;2.67;;;;;;;;;;5031034;28;20209;-90
2022/06/16 00:54:51;;;;;;;2.97;2.30;;;;;;;;;;5030533;28;20190;-90
2022/06/16 00:57:22;;;;;;;2.90;2.40;;;;;;;;;;5031277;28;20187;-89
2022/06/16 00:59:49;;;;;;;2.60;2.40;;;;;;;;;;5030733;28;20667;-89
2022/06/16 01:02:16;;;;;;;7.07;2.40;;;;;;;;;;5030541;28;20200;-90
2022/06/16 01:04:51;;;;;;;3.03;2.83;;;;;;;;;;5030530;28;20206;-90
2022/06/16 01:07:22;;;;;;;2.57;2.30;;;;;;;;;;5030693;28;20216;-90
2022/06/16 01:09:50;;;;;;;2.70;2.50;;;;;;;;;;5030846;28;20278;-90
2022/06/16 01:15:49;;;;;;;3.50;2.70;;;;;;;;;;4970217;28;20215;-90
2022/06/16 01:18:22;;;;;;;5.17;2.27;;;;;;;;;;4969559;28;20191;-90
2022/06/16 01:20:54;;;;;;;3.67;2.40;;;;;;;;;;5005089;28;20247;-90
2022/06/16 01:23:49;;;;;;;3.77;2.30;;;;;;;;;;5030582;28;20204;-90
2022/06/16 01:26:43;;;;;;;4.40;2.80;;;;;;;;;;5030335;28;20201;-89
2022/06/16 01:29:16;;;;;;;2.83;2.57;;;;;;;;;;5020420;28;20665;-90
2022/06/16 01:31:47;;;;;;;6.43;2.60;;;;;;;;;;5030354;28;20196;-90
2022/06/16 01:34:23;;;;;;;2.70;2.50;;;;;;;;;;5030524;28;20187;-90
2022/06/16 01:36:53;;;;;;;2.67;2.37;;;;;;;;;;5030457;28;20192;-90
2022/06/16 01:39:29;;;;;;;2.20;2.10;;;;;;;;;;5030364;28;20200;-90
2022/06/16 01:42:00;;;;;;;4.43;2.50;;;;;;;;;;5029948;28;20188;-89
2022/06/16 01:44:32;;;;;;;5.27;2.57;;;;;;;;;;5030360;28;20231;-90
2022/06/16 01:47:02;;;;;;;3.73;3.00;;;;;;;;;;5029762;28;20784;-90
2022/06/16 01:49:33;;;;;;;2.30;2.10;;;;;;;;;;5030091;28;20205;-89
2022/06/16 01:52:04;;;;;;;4.17;2.90;;;;;;;;;;5029822;28;20196;-90
2022/06/16 01:54:34;;;;;;;3.07;2.87;;;;;;;;;;5030030;28;20287;-90
2022/06/16 01:57:04;;;;;;;6.90;2.73;;;;;;;;;;5030151;28;20218;-89
2022/06/16 01:59:36;;;;;;;2.50;2.30;;;;;;;;;;5029644;28;20212;-90
2022/06/16 02:02:07;;;;;;;5.53;2.77;;;;;;;;;;5030144;28;20194;-89
2022/06/16 02:04:37;;;;;;;5.63;2.30;;;;;;;;;;5029947;28;20199;-90
2022/06/16 02:07:08;;;;;;;5.27;2.90;;;;;;;;;;5029977;28;20180;-89
2022/06/16 02:09:39;;;;;;;4.10;2.60;;;;;;;;;;5029993;28;20288;-90
2022/06/16 02:12:07;;;;;;;3.20;2.50;;;;;;;;;;5030043;28;20244;-89
2022/06/16 02:14:39;;;;;;;4.43;2.90;;;;;;;;;;5029900;28;20208;-89
2022/06/16 02:17:06;;;;;;;4.23;2.83;;;;;;;;;;5029725;28;20196;-89
2022/06/16 02:19:33;;;;;;;7.53;2.60;;;;;;;;;;5029534;28;20197;-89
2022/06/16 02:22:02;;;;;;;4.47;3.00;;;;;;;;;;5029812;28;20664;-90
2022/06/16 02:24:31;;;;;;;2.60;2.40;;;;;;;;;;5029496;28;20196;-89
2022/06/16 02:27:00;;;;;;;3.60;2.60;;;;;;;;;;5029680;28;20203;-89
2022/06/16 02:29:30;;;;;;;3.17;2.40;;;;;;;;;;5029354;28;20256;-89
2022/06/16 02:32:26;;;;;;;5.57;2.67;;;;;;;;;;5033084;28;20754;-90
2022/06/16 02:35:01;;;;;;;4.80;2.70;;;;;;;;;;5025735;28;20199;-89
2022/06/16 02:37:34;;;;;;;4.87;2.60;;;;;;;;;;5033277;28;20255;-89
2022/06/16 02:40:12;;;;;;;4.30;3.20;;;;;;;;;;5033063;28;20279;-89
2022/06/16 02:42:46;;;;;;;4.60;3.73;;;;;;;;;;5033042;28;20191;-89
2022/06/16 02:45:18;;;;;;;3.07;2.77;;;;;;;;;;5032700;28;20179;-89
2022/06/16 02:47:57;;;;;;;4.50;2.57;;;;;;;;;;5032986;28;20191;-90
2022/06/16 02:50:40;;;;;;;3.83;2.73;;;;;;;;;;5032690;28;20305;-89
2022/06/16 02:53:17;;;;;;;8.47;3.70;;;;;;;;;;5032475;28;20282;-89
2022/06/16 02:55:47;;;;;;;2.87;2.67;;;;;;;;;;5032941;28;20635;-89
2022/06/16 02:58:16;;;;;;;2.97;2.50;;;;;;;;;;5032356;28;20199;-89
2022/06/16 03:00:46;;;;;;;3.03;2.83;;;;;;;;;;5032574;28;20191;-89
2022/06/16 03:03:20;;;;;;;2.70;2.50;;;;;;;;;;5032952;28;20651;-88
2022/06/16 03:05:51;;;;;;;5.33;2.90;;;;;;;;;;5032486;28;20199;-88
2022/06/16 03:08:18;;;;;;;3.63;2.73;;;;;;;;;;5032608;28;20252;-89
2022/06/16 03:10:54;;;;;;;4.57;2.97;;;;;;;;;;5032435;28;20702;-88
2022/06/16 03:13:24;;;;;;;6.10;3.07;;;;;;;;;;5032474;28;20216;-89
2022/06/16 03:15:52;;;;;;;4.77;2.90;;;;;;;;;;5032565;28;20632;-88
2022/06/16 03:18:21;;;;;;;3.37;3.07;;;;;;;;;;5032473;28;20663;-89
2022/06/16 03:20:49;;;;;;;3.67;3.37;;;;;;;;;;5032415;28;20202;-89
2022/06/16 03:23:16;;;;;;;4.83;3.27;;;;;;;;;;5032079;28;20248;-88
2022/06/16 03:25:43;;;;;;;8.10;3.17;;;;;;;;;;5032078;28;20256;-88
2022/06/16 03:28:11;;;;;;;4.67;3.40;;;;;;;;;;5031683;28;20202;-88
2022/06/16 03:30:39;;;;;;;5.63;3.27;;;;;;;;;;5032280;28;20229;-93
2022/06/16 03:33:08;;;;;;;4.80;3.20;;;;;;;;;;5029569;28;20210;-89
2022/06/16 03:35:37;;;;;;;3.07;2.77;;;;;;;;;;5032004;28;20199;-89
2022/06/16 03:38:04;;;;;;;5.87;2.97;;;;;;;;;;5031774;28;20260;-93
2022/06/16 03:40:40;;;;;;;3.43;3.00;;;;;;;;;;5032340;28;20576;-94
2022/06/16 03:43:08;;;;;;;4.47;2.83;;;;;;;;;;5034306;28;20199;-93
2022/06/16 03:45:36;;;;;;;8.73;3.20;;;;;;;;;;5031801;28;20237;-95
2022/06/16 03:48:03;;;;;;;4.23;2.90;;;;;;;;;;5031647;28;20202;-94
2022/06/16 03:50:31;;;;;;;4.93;2.60;;;;;;;;;;5031909;28;20222;-94
2022/06/16 03:52:59;;;;;;;8.13;3.60;;;;;;;;;;5031712;28;20211;-94
2022/06/16 03:55:27;;;;;;;5.03;3.00;;;;;;;;;;5031760;28;20210;-94
2022/06/16 03:57:54;;;;;;;5.17;2.73;;;;;;;;;;5031655;28;20202;-94
2022/06/16 04:00:23;;;;;;;5.23;3.23;;;;;;;;;;5031866;28;20690;-94
2022/06/16 04:03:59;;;;;;;8.33;3.47;;;;;;;;;;5031737;28;20203;-93
2022/06/16 04:05:40;;;;;;;3.00;2.70;;;;;;;;;;5031421;28;20195;-94
2022/06/16 04:08:10;;;;;;;3.10;2.77;;;;;;;;;;5031527;28;20210;-94
2022/06/16 04:10:37;;;;;;;5.40;2.80;;;;;;;;;;5031353;28;20239;-94
2022/06/16 04:13:05;;;;;;;2.90;2.70;;;;;;;;;;5031478;28;20270;-94
2022/06/16 04:15:32;;;;;;;3.10;2.73;;;;;;;;;;5031638;28;20224;-94
2022/06/16 04:17:59;;;;;;;3.40;3.10;;;;;;;;;;5031491;28;20698;-93
2022/06/16 04:20:27;;;;;;;4.70;2.60;;;;;;;;;;5029976;28;20581;-86
2022/06/16 04:22:54;;;;;;;4.03;3.03;;;;;;;;;;5031261;28;20549;-88
2022/06/16 04:25:30;;;;;;;3.40;3.10;;;;;;;;;;5031062;28;20203;-88
2022/06/16 04:27:58;;;;;;;3.43;3.13;;;;;;;;;;5031155;28;20189;-88
2022/06/16 04:30:25;;;;;;;8.27;4.23;;;;;;;;;;5031233;28;20230;-88
2022/06/16 04:32:52;;;;;;;3.77;3.47;;;;;;;;;;5031206;28;20203;-87
2022/06/16 04:35:19;;;;;;;3.70;3.20;;;;;;;;;;5030906;28;20200;-87
2022/06/16 04:37:46;;;;;;;7.20;3.53;;;;;;;;;;5030569;28;20746;-87
2022/06/16 04:40:14;;;;;;;6.33;4.30;;;;;;;;;;5030689;28;20204;-87
2022/06/16 04:42:42;;;;;;;4.87;4.07;;;;;;;;;;5030709;28;20211;-87
2022/06/16 04:45:11;;;;;;;4.80;3.67;;;;;;;;;;5030440;28;20667;-88
2022/06/16 04:47:38;;;;;;;7.13;3.40;;;;;;;;;;5030867;28;20194;-88
2022/06/16 04:50:07;;;;;;;4.13;3.83;;;;;;;;;;5030988;28;20199;-88
2022/06/16 04:52:34;;;;;;;4.07;3.57;;;;;;;;;;5030901;28;20205;-87
2022/06/16 04:55:01;;;;;;;5.33;3.80;;;;;;;;;;5029757;28;20200;-88
2022/06/16 04:57:28;;;;;;;8.20;4.17;;;;;;;;;;5031018;28;20199;-87
2022/06/16 04:59:57;;;;;;;3.90;3.60;;;;;;;;;;5030894;28;20262;-88
2022/06/16 05:02:24;;;;;;;5.03;4.60;;;;;;;;;;5030822;28;20190;-88
2022/06/16 05:04:51;;;;;;;4.73;3.80;;;;;;;;;;5030687;28;20204;-88
2022/06/16 05:07:18;;;;;;;4.37;3.83;;;;;;;;;;5030490;28;20253;-87
2022/06/16 05:09:45;;;;;;;5.90;3.60;;;;;;;;;;5030418;28;20196;-87
2022/06/16 05:12:12;;;;;;;3.90;3.60;;;;;;;;;;5030669;28;20227;-87
2022/06/16 05:14:39;;;;;;;4.53;4.13;;;;;;;;;;5030300;28;20199;-88
2022/06/16 05:17:08;;;;;;;3.80;3.47;;;;;;;;;;5030444;28;20197;-88
2022/06/16 05:19:35;;;;;;;5.13;3.73;;;;;;;;;;5030505;28;20255;-87
2022/06/16 05:22:02;;;;;;;4.90;3.50;;;;;;;;;;5030616;28;20205;-87
2022/06/16 05:24:29;;;;;;;4.83;3.83;;;;;;;;;;5030137;28;20203;-88
2022/06/16 05:26:56;;;;;;;6.70;3.67;;;;;;;;;;5030541;28;20202;-88
2022/06/16 05:29:23;;;;;;;4.63;3.53;;;;;;;;;;5030462;28;20207;-87
2022/06/16 05:31:50;;;;;;;7.80;3.63;;;;;;;;;;5030281;28;20223;-88
2022/06/16 05:34:19;;;;;;;4.00;3.60;;;;;;;;;;5030133;28;20224;-88
2022/06/16 05:36:46;;;;;;;4.47;4.17;;;;;;;;;;5030029;28;20209;-88
2022/06/16 05:39:14;;;;;;;3.77;3.47;;;;;;;;;;5030283;28;20251;-88
2022/06/16 05:41:41;;;;;;;3.77;3.40;;;;;;;;;;5029888;28;20262;-87
2022/06/16 05:44:09;;;;;;;3.87;3.57;;;;;;;;;;5030062;28;20202;-88
2022/06/16 05:46:37;;;;;;;8.27;3.83;;;;;;;;;;5029700;28;20292;-88
2022/06/16 05:49:04;;;;;;;3.93;3.17;;;;;;;;;;5029920;28;20225;-88
2022/06/16 05:51:33;;;;;;;4.23;3.10;;;;;;;;;;5030182;28;20600;-87
2022/06/16 05:54:00;;;;;;;5.47;3.20;;;;;;;;;;5030204;28;20589;-87
2022/06/16 05:56:27;;;;;;;6.67;3.20;;;;;;;;;;5030019;28;20283;-88
2022/06/16 05:58:54;;;;;;;6.10;2.53;;;;;;;;;;5029661;28;20701;-87
2022/06/16 06:01:21;;;;;;;5.20;3.10;;;;;;;;;;5030061;28;20217;-87
2022/06/16 06:03:48;;;;;;;8.20;3.73;;;;;;;;;;5029562;28;20663;-87
2022/06/16 06:06:15;;;;;;;3.93;3.00;;;;;;;;;;5032826;28;20204;-87
2022/06/16 06:17:02;;;;;;;2.90;2.70;;;;;;;;;;5033235;28;20182;-88
2022/06/16 06:19:31;;;;;;;4.20;2.80;;;;;;;;;;5033363;28;20202;-87
2022/06/16 06:22:05;;;;;;;3.30;2.90;;;;;;;;;;5032840;28;20194;-87
2022/06/16 06:24:35;;;;;;;3.67;3.10;;;;;;;;;;5032846;28;20643;-87
2022/06/16 06:27:06;;;;;;;2.57;2.37;;;;;;;;;;5033088;28;20187;-87
2022/06/16 06:29:34;;;;;;;2.67;2.47;;;;;;;;;;5033224;28;20221;-88
2022/06/16 06:32:01;;;;;;;3.50;2.53;;;;;;;;;;5032871;28;20303;-88
2022/06/16 06:34:29;;;;;;;2.63;2.27;;;;;;;;;;5032709;28;20200;-87
2022/06/16 06:36:56;;;;;;;2.50;2.30;;;;;;;;;;5032597;28;20263;-87
2022/06/16 06:39:23;;;;;;;2.63;2.43;;;;;;;;;;5032802;28;20327;-87
2022/06/16 06:41:52;;;;;;;2.30;2.10;;;;;;;;;;5032737;28;20287;-87
2022/06/16 06:44:19;;;;;;;2.07;1.97;;;;;;;;;;5032575;28;20203;-86
2022/06/16 06:46:46;;;;;;;2.37;2.13;;;;;;;;;;5032564;28;20238;-87
2022/06/16 06:49:13;;;;;;;3.43;2.60;;;;;;;;;;5032859;28;20578;-87
2022/06/16 06:51:40;;;;;;;2.83;2.40;;;;;;;;;;5032423;28;20254;-88
2022/06/16 06:54:07;;;;;;;2.10;1.93;;;;;;;;;;5032702;28;20203;-87
2022/06/16 06:56:34;;;;;;;5.00;2.30;;;;;;;;;;5032519;28;20203;-88
2022/06/16 06:59:06;;;;;;;2.20;1.93;;;;;;;;;;5032587;28;20560;-87
2022/06/16 07:01:33;;;;;;;2.47;2.07;;;;;;;;;;5032678;28;20571;-87
2022/06/16 07:04:00;;;;;;;1.83;1.73;;;;;;;;;;5032524;28;20207;-88
2022/06/16 07:06:28;;;;;;;2.40;2.20;;;;;;;;;;5032379;28;20199;-88
2022/06/16 07:08:55;;;;;;;2.47;2.00;;;;;;;;;;5032128;28;20257;-87
2022/06/16 07:11:22;;;;;;;2.40;2.20;;;;;;;;;;5032515;28;20219;-88
2022/06/16 07:13:49;;;;;;;3.20;2.60;;;;;;;;;;5032126;28;20202;-87
2022/06/16 07:16:18;;;;;;;3.87;2.20;;;;;;;;;;5031336;28;20199;-88
2022/06/16 07:18:46;;;;;;;3.57;2.50;;;;;;;;;;5032059;28;20702;-87
2022/06/16 07:21:14;;;;;;;3.87;2.00;;;;;;;;;;5032330;28;20265;-87
2022/06/16 07:23:42;;;;;;;3.13;1.93;;;;;;;;;;5032083;28;20206;-89
2022/06/16 07:26:10;;;;;;;2.90;2.00;;;;;;;;;;5031694;28;20255;-86
2022/06/16 07:28:37;;;;;;;4.27;2.57;;;;;;;;;;5032155;28;20657;-86
2022/06/16 07:31:04;;;;;;;2.70;2.50;;;;;;;;;;5031786;28;20202;-87
2022/06/16 07:33:32;;;;;;;2.20;2.00;;;;;;;;;;5032055;28;20190;-86
2022/06/16 07:35:59;;;;;;;3.10;2.33;;;;;;;;;;5031558;28;20203;-86
2022/06/16 07:38:27;;;;;;;2.30;2.10;;;;;;;;;;5031828;28;20202;-87
2022/06/16 07:41:31;;;;;;;3.17;2.50;;;;;;;;;;5032168;28;20678;-87
2022/06/16 07:43:41;;;;;;;4.17;2.40;;;;;;;;;;5031385;28;20206;-86
2022/06/16 07:46:08;;;;;;;2.57;2.37;;;;;;;;;;5031511;28;20235;-86
2022/06/16 07:48:37;;;;;;;4.23;2.73;;;;;;;;;;5031815;28;20638;-86
2022/06/16 07:51:05;;;;;;;3.40;2.50;;;;;;;;;;5031440;28;20191;-86
2022/06/16 07:53:32;;;;;;;3.87;2.70;;;;;;;;;;5031589;28;20206;-87
2022/06/16 07:56:00;;;;;;;7.67;3.43;;;;;;;;;;5031600;28;20199;-86
2022/06/16 07:58:31;;;;;;;2.63;2.43;;;;;;;;;;5031579;28;20582;-86
2022/06/16 08:00:59;;;;;;;3.10;2.90;;;;;;;;;;5031496;28;20187;-87
2022/06/16 08:03:28;;;;;;;3.27;3.07;;;;;;;;;;5031404;28;20202;-86
2022/06/16 08:05:58;;;;;;;3.57;2.87;;;;;;;;;;5031500;28;20574;-86
2022/06/16 08:08:26;;;;;;;3.50;3.20;;;;;;;;;;5031568;28;20206;-86
2022/06/16 08:10:54;;;;;;;3.10;2.90;;;;;;;;;;5030982;28;20256;-86
2022/06/16 08:13:22;;;;;;;3.43;2.60;;;;;;;;;;5031050;28;20223;-86
2022/06/16 08:15:50;;;;;;;3.37;2.63;;;;;;;;;;5031173;28;20288;-85
2022/06/16 08:18:19;;;;;;;3.60;3.30;;;;;;;;;;5031199;28;20203;-87
2022/06/16 08:20:46;;;;;;;3.10;2.80;;;;;;;;;;5030783;28;20202;-86
2022/06/16 08:23:15;;;;;;;3.50;2.57;;;;;;;;;;5031201;28;20221;-86
2022/06/16 08:25:43;;;;;;;3.03;2.77;;;;;;;;;;5031014;28;20209;-86
2022/06/16 08:28:11;;;;;;;3.03;2.73;;;;;;;;;;5030500;28;20734;-86
2022/06/16 08:30:41;;;;;;;2.97;2.50;;;;;;;;;;5031145;28;20628;-86
2022/06/16 08:33:09;;;;;;;2.73;2.53;;;;;;;;;;5030692;28;20275;-86
2022/06/16 08:35:36;;;;;;;3.20;2.90;;;;;;;;;;5030514;28;20198;-86
2022/06/16 08:38:04;;;;;;;4.80;3.10;;;;;;;;;;5030423;28;20218;-86
2022/06/16 08:40:36;;;;;;;4.20;3.80;;;;;;;;;;5030346;28;20199;-86
2022/06/16 08:43:07;;;;;;;4.00;3.10;;;;;;;;;;5030885;28;20179;-86
2022/06/16 08:45:36;;;;;;;5.00;3.10;;;;;;;;;;5030494;28;20234;-86
2022/06/16 08:48:19;;;;;;;3.73;3.30;;;;;;;;;;5030451;28;20205;-86
2022/06/16 08:50:50;;;;;;;3.73;3.23;;;;;;;;;;5030817;28;20187;-87
2022/06/16 08:53:31;;;;;;;3.47;2.80;;;;;;;;;;5030523;28;20218;-89
2022/06/16 08:56:03;;;;;;;3.37;2.83;;;;;;;;;;5030839;28;20183;-86
2022/06/16 08:58:35;;;;;;;4.90;3.10;;;;;;;;;;5030433;28;20191;-86
2022/06/16 09:01:07;;;;;;;3.90;3.20;;;;;;;;;;5029916;28;20640;-86
2022/06/16 09:03:46;;;;;;;3.17;2.83;;;;;;;;;;5030175;28;20274;-86
2022/06/16 09:06:23;;;;;;;3.80;3.50;;;;;;;;;;5030100;28;20187;-86
2022/06/16 09:08:55;;;;;;;3.00;2.70;;;;;;;;;;5029993;28;20190;-86
2022/06/16 09:11:33;;;;;;;3.40;3.10;;;;;;;;;;5030200;28;20202;-86
2022/06/16 09:14:15;;;;;;;3.83;3.47;;;;;;;;;;5029892;28;20186;-85
2022/06/16 09:16:48;;;;;;;3.80;3.00;;;;;;;;;;5030055;28;20183;-86
2022/06/16 09:19:34;;;;;;;4.87;3.40;;;;;;;;;;5030242;28;20195;-86
2022/06/16 09:22:08;;;;;;;4.87;3.00;;;;;;;;;;5029720;28;20200;-86
2022/06/16 09:24:46;;;;;;;3.20;3.00;;;;;;;;;;5029710;28;20222;-86
2022/06/16 09:27:18;;;;;;;3.50;3.20;;;;;;;;;;5029792;28;20187;-85
2022/06/16 09:29:47;;;;;;;3.50;3.30;;;;;;;;;;5030044;28;20183;-86
2022/06/16 09:32:18;;;;;;;3.43;3.07;;;;;;;;;;5029829;28;20223;-86
2022/06/16 09:34:51;;;;;;;3.60;3.30;;;;;;;;;;5029564;28;20222;-85
2022/06/16 09:37:24;;;;;;;5.73;3.97;;;;;;;;;;5029693;28;20187;-86
2022/06/16 09:39:56;;;;;;;3.97;3.63;;;;;;;;;;5029118;28;20187;-86
2022/06/16 09:42:36;;;;;;;3.40;3.10;;;;;;;;;;5029505;28;20183;-86
2022/06/16 09:45:13;;;;;;;3.60;3.30;;;;;;;;;;5029525;28;20571;-85
2022/06/16 09:47:44;;;;;;;5.13;3.40;;;;;;;;;;5029197;28;20190;-86
2022/06/16 09:50:16;;;;;;;4.77;3.33;;;;;;;;;;5029432;28;20199;-85
2022/06/16 09:52:48;;;;;;;4.57;3.30;;;;;;;;;;5029438;28;20218;-86
2022/06/16 09:55:19;;;;;;;3.73;3.40;;;;;;;;;;5029226;28;20637;-86
2022/06/16 09:57:50;;;;;;;4.53;3.60;;;;;;;;;;5029222;28;20183;-86
2022/06/16 10:00:20;;;;;;;3.43;3.10;;;;;;;;;;5029615;28;20248;-85
2022/06/16 10:02:50;;;;;;;5.47;3.00;;;;;;;;;;5029091;28;20199;-86
2022/06/16 10:05:19;;;;;;;4.17;3.47;;;;;;;;;;5029519;28;20190;-86
2022/06/16 10:07:51;;;;;;;3.67;2.97;;;;;;;;;;5029463;28;20683;-86
2022/06/16 10:10:23;;;;;;;3.70;3.40;;;;;;;;;;5029217;28;20187;-85
2022/06/16 10:12:56;;;;;;;7.43;4.07;;;;;;;;;;5028777;28;20217;-86
2022/06/16 10:15:30;;;;;;;3.17;2.80;;;;;;;;;;5029394;28;20555;-85
2022/06/16 10:17:58;;;;;;;3.30;2.53;;;;;;;;;;5029319;28;20609;-88
2022/06/16 10:20:26;;;;;;;3.33;3.07;;;;;;;;;;5029032;28;20198;-87
2022/06/16 10:22:57;;;;;;;3.87;2.77;;;;;;;;;;5028862;28;20206;-88
2022/06/16 10:25:28;;;;;;;3.50;3.20;;;;;;;;;;5028978;28;20202;-87
2022/06/16 10:28:00;;;;;;;5.30;4.00;;;;;;;;;;5028774;28;20198;-86
2022/06/16 10:30:34;;;;;;;5.13;2.93;;;;;;;;;;5028830;28;20183;-85
2022/06/16 10:33:11;;;;;;;2.73;2.53;;;;;;;;;;5028809;28;20214;-85
2022/06/16 10:35:39;;;;;;;2.90;2.70;;;;;;;;;;5028726;28;20235;-86
2022/06/16 10:38:11;;;;;;;5.27;2.50;;;;;;;;;;5028612;28;20199;-85
2022/06/16 10:40:40;;;;;;;4.90;3.40;;;;;;;;;;5028711;28;20194;-85
2022/06/16 10:43:12;;;;;;;4.57;3.00;;;;;;;;;;5028669;28;20198;-86
2022/06/16 10:45:39;;;;;;;3.20;3.00;;;;;;;;;;5028598;28;20242;-85
2022/06/16 10:48:08;;;;;;;3.20;3.00;;;;;;;;;;5028571;28;20712;-86
2022/06/16 10:50:38;;;;;;;3.33;3.13;;;;;;;;;;5028855;28;20195;-85
2022/06/16 10:53:15;;;;;;;3.30;2.80;;;;;;;;;;5032170;28;20229;-86
2022/06/16 10:55:44;;;;;;;4.17;3.03;;;;;;;;;;5031997;28;20190;-85
2022/06/16 10:58:20;;;;;;;5.70;2.80;;;;;;;;;;5031838;28;20202;-85
2022/06/16 11:01:07;;;;;;;3.23;3.03;;;;;;;;;;5031714;28;20581;-85
2022/06/16 11:03:37;;;;;;;3.50;2.90;;;;;;;;;;5032303;28;20221;-86
2022/06/16 11:06:07;;;;;;;2.90;2.70;;;;;;;;;;5032211;28;20195;-86
2022/06/16 11:08:36;;;;;;;3.37;3.07;;;;;;;;;;5031849;28;20648;-86
2022/06/16 11:11:03;;;;;;;3.43;3.10;;;;;;;;;;5031958;28;20203;-86
2022/06/16 11:13:33;;;;;;;2.93;2.73;;;;;;;;;;5031422;28;20283;-86
2022/06/16 11:16:06;;;;;;;2.80;2.60;;;;;;;;;;5031769;28;20281;-85
2022/06/16 11:18:34;;;;;;;3.20;2.77;;;;;;;;;;5031928;28;20179;-87
2022/06/16 11:21:14;;;;;;;3.07;2.40;;;;;;;;;;5031561;28;20202;-88
2022/06/16 11:23:43;;;;;;;3.17;2.67;;;;;;;;;;5031681;28;20539;-85
2022/06/16 11:26:20;;;;;;;2.67;2.47;;;;;;;;;;5031479;28;20689;-85
2022/06/16 11:28:51;;;;;;;4.53;2.70;;;;;;;;;;5031745;28;20255;-85
2022/06/16 11:31:21;;;;;;;3.73;2.53;;;;;;;;;;5031684;28;20248;-86
2022/06/16 11:34:07;;;;;;;2.60;2.40;;;;;;;;;;5031083;28;20229;-85
2022/06/16 11:36:51;;;;;;;3.07;2.33;;;;;;;;;;5031496;28;20191;-85
2022/06/16 11:39:24;;;;;;;2.40;2.20;;;;;;;;;;5031600;28;20620;-86
2022/06/16 11:41:53;;;;;;;3.23;2.57;;;;;;;;;;5031312;28;20201;-85
2022/06/16 11:44:34;;;;;;;3.50;2.63;;;;;;;;;;5030943;28;20206;-87
2022/06/16 11:47:07;;;;;;;3.27;2.40;;;;;;;;;;5030954;28;20627;-87
2022/06/16 11:49:38;;;;;;;3.63;2.80;;;;;;;;;;5031128;28;20647;-87
2022/06/16 11:52:13;;;;;;;2.77;2.50;;;;;;;;;;5030860;28;20662;-87
2022/06/16 11:54:48;;;;;;;2.30;2.20;;;;;;;;;;5030834;28;20183;-87
2022/06/16 11:57:22;;;;;;;2.90;2.40;;;;;;;;;;5030770;28;20243;-87
2022/06/16 12:00:06;;;;;;;2.70;2.10;;;;;;;;;;5030953;28;20252;-87
2022/06/16 12:02:47;;;;;;;2.87;2.60;;;;;;;;;;5030244;28;20187;-87
2022/06/16 12:05:27;;;;;;;2.63;2.43;;;;;;;;;;5030969;28;20191;-87
2022/06/16 12:08:35;;;;;;;5.13;2.20;;;;;;;;;;5030606;28;20245;-87
2022/06/16 12:11:08;;;;;;;3.70;3.00;;;;;;;;;;5052752;28;20710;-87
2022/06/16 12:13:43;;;;;;;2.57;2.37;;;;;;;;;;5030663;28;20651;-87
2022/06/16 12:16:16;;;;;;;2.40;2.20;;;;;;;;;;5030833;28;20273;-87
2022/06/16 12:18:52;;;;;;;2.30;2.10;;;;;;;;;;5030605;28;20194;-87
2022/06/16 12:21:23;;;;;;;3.03;2.20;;;;;;;;;;5030680;28;20251;-87
2022/06/16 12:23:57;;;;;;;2.40;2.20;;;;;;;;;;5030878;28;20187;-87
2022/06/16 12:26:28;;;;;;;2.90;2.37;;;;;;;;;;5030056;28;20187;-87
2022/06/16 12:29:05;;;;;;;3.00;2.10;;;;;;;;;;5031566;28;20187;-87
2022/06/16 12:31:41;;;;;;;2.10;2.00;;;;;;;;;;5030440;28;20198;-87
2022/06/16 12:34:14;;;;;;;2.40;2.20;;;;;;;;;;5030172;28;20593;-87
2022/06/16 12:36:45;;;;;;;2.07;1.97;;;;;;;;;;5030385;28;20187;-86
2022/06/16 12:39:16;;;;;;;2.70;2.23;;;;;;;;;;5030292;28;20652;-87
2022/06/16 12:41:48;;;;;;;1.90;1.80;;;;;;;;;;5029998;28;20248;-87
2022/06/16 12:44:19;;;;;;;2.15;2.00;;;;;;;;;;5030284;28;20183;-87
2022/06/16 12:46:51;;;;;;;2.42;2.20;;;;;;;;;;5029819;28;20230;-87
2022/06/16 12:49:22;;;;;;;3.30;2.53;;;;;;;;;;5030080;28;20201;-87
2022/06/16 12:51:51;;;;;;;3.17;2.10;;;;;;;;;;5029664;28;20734;-87
2022/06/16 12:54:21;;;;;;;2.20;2.10;;;;;;;;;;5030059;28;20275;-88
2022/06/16 12:56:51;;;;;;;3.27;1.90;;;;;;;;;;5029921;28;20183;-87
2022/06/16 12:59:23;;;;;;;2.20;2.00;;;;;;;;;;5029797;28;20210;-86
2022/06/16 13:01:54;;;;;;;2.17;2.08;;;;;;;;;;5030055;28;20183;-86
2022/06/16 13:04:24;;;;;;;1.93;1.83;;;;;;;;;;5029932;28;20183;-87
2022/06/16 13:06:53;;;;;;;2.35;2.15;;;;;;;;;;5029865;28;20206;-87
2022/06/16 13:09:20;;;;;;;4.00;2.38;;;;;;;;;;5029747;28;20209;-87
2022/06/16 13:11:50;;;;;;;3.43;2.10;;;;;;;;;;5029518;28;20220;-87
2022/06/16 13:14:22;;;;;;;3.13;2.43;;;;;;;;;;5028820;28;20238;-87
2022/06/16 13:16:51;;;;;;;2.87;2.43;;;;;;;;;;5029906;28;20767;-87
2022/06/16 13:19:20;;;;;;;4.17;2.30;;;;;;;;;;5030029;28;20585;-87
2022/06/16 13:21:54;;;;;;;3.13;2.80;;;;;;;;;;5029464;28;20204;-87
2022/06/16 13:24:25;;;;;;;2.53;2.30;;;;;;;;;;5029997;28;20186;-87
2022/06/16 13:26:59;;;;;;;2.20;2.08;;;;;;;;;;5029975;28;20601;-87
2022/06/16 13:29:33;;;;;;;2.30;2.10;;;;;;;;;;5029815;28;20194;-87
2022/06/16 13:32:03;;;;;;;1.97;1.70;;;;;;;;;;5029302;28;20220;-87
2022/06/16 13:34:51;;;;;;;2.30;1.80;;;;;;;;;;5029684;28;20206;-86
2022/06/16 13:37:38;;;;;;;2.70;2.50;;;;;;;;;;5029674;28;20220;-87
2022/06/16 13:40:23;;;;;;;2.47;2.23;;;;;;;;;;5029258;28;20187;-87
2022/06/16 13:43:12;;;;;;;2.20;2.00;;;;;;;;;;5029301;28;20193;-87
2022/06/16 13:45:52;;;;;;;2.10;1.90;;;;;;;;;;5029154;28;20307;-87
2022/06/16 13:48:32;;;;;;;3.17;1.80;;;;;;;;;;5029387;28;20624;-87
2022/06/16 13:51:03;;;;;;;3.03;2.33;;;;;;;;;;5029342;28;20187;-87
2022/06/16 13:53:45;;;;;;;3.50;2.13;;;;;;;;;;5029496;28;20229;-86
2022/06/16 13:56:27;;;;;;;2.35;1.95;;;;;;;;;;5029064;28;20194;-87
2022/06/16 13:59:10;;;;;;;3.22;2.15;;;;;;;;;;5029006;28;20411;-84
2022/06/16 14:02:03;;;;;;;2.10;2.00;;;;;;;;;;5029188;28;20186;-84
2022/06/16 14:04:32;;;;;;;2.03;1.92;;;;;;;;;;5029060;28;20183;-84
2022/06/16 14:07:04;;;;;;;2.38;2.13;;;;;;;;;;5029001;28;20222;-85
2022/06/16 14:09:34;;;;;;;2.27;2.07;;;;;;;;;;5028778;28;20206;-85
2022/06/16 14:12:20;;;;;;;2.13;1.93;;;;;;;;;;5028494;28;20623;-84
2022/06/16 14:15:09;;;;;;;2.63;1.90;;;;;;;;;;5028865;28;20219;-85
2022/06/16 14:17:37;;;;;;;2.27;2.10;;;;;;;;;;5028952;28;20213;-85
2022/06/16 14:20:11;;;;;;;2.13;2.03;;;;;;;;;;5029036;28;20218;-84
2022/06/16 14:22:41;;;;;;;2.00;1.80;;;;;;;;;;5028701;28;20220;-85
2022/06/16 14:25:12;;;;;;;2.57;2.10;;;;;;;;;;5028897;28;20298;-84
2022/06/16 14:27:44;;;;;;;2.07;1.97;;;;;;;;;;5031832;28;20195;-85
2022/06/16 14:30:13;;;;;;;3.10;2.60;;;;;;;;;;5032483;28;20217;-85
2022/06/16 14:32:44;;;;;;;2.90;2.70;;;;;;;;;;5032033;28;20198;-85
2022/06/16 14:35:17;;;;;;;3.90;3.60;;;;;;;;;;5032331;28;20606;-85
2022/06/16 14:37:49;;;;;;;8.17;7.37;;;;;;;;;;5032422;28;20247;-83
2022/06/16 14:40:19;;;;;;;12.40;7.50;;;;;;;;;;5032019;28;20194;-84
2022/06/16 14:42:47;;;;;;;5.30;3.33;;;;;;;;;;5030302;28;20255;-83
2022/06/16 14:45:23;;;;;;;6.13;5.40;;;;;;;;;;5015006;28;20302;-83
2022/06/16 14:47:56;;;;;;;4.50;3.87;;;;;;;;;;5012481;28;20187;-84
2022/06/16 14:50:28;;;;;;;10.70;7.13;;;;;;;;;;5012245;28;20260;-83
2022/06/16 14:52:57;;;;;;;3.17;2.87;;;;;;;;;;5012030;28;20199;-82
2022/06/16 14:55:31;;;;;;;3.67;2.80;;;;;;;;;;5011818;28;20219;-82
2022/06/16 14:58:04;;;;;;;2.70;2.50;;;;;;;;;;5012248;28;20184;-83
2022/06/16 15:00:38;;;;;;;3.25;2.30;;;;;;;;;;5011910;28;20571;-83
2022/06/16 15:03:08;;;;;;;3.63;2.30;;;;;;;;;;5011925;28;20249;-83
2022/06/16 15:05:37;;;;;;;2.63;2.13;;;;;;;;;;5012420;28;20207;-87
2022/06/16 15:08:05;;;;;;;3.67;1.80;;;;;;;;;;5013019;28;20203;-87
2022/06/16 15:10:33;;;;;;;2.50;2.10;;;;;;;;;;5012865;28;20672;-87
2022/06/16 15:13:02;;;;;;;2.47;2.27;;;;;;;;;;5013025;28;20199;-88
2022/06/16 15:15:29;;;;;;;2.67;2.10;;;;;;;;;;5012779;28;20223;-87
2022/06/16 15:18:12;;;;;;;2.40;2.17;;;;;;;;;;5012727;28;20749;-87